createdAt,value
2023-05-24T00:01:57.138Z,64.10
2023-05-24T00:06:49.644Z,64.37
2023-05-24T00:11:41.666Z,64.78
2023-05-24T00:16:34.055Z,65.07
2023-05-24T00:21:26.520Z,65.32
2023-05-24T00:26:18.659Z,65.98
2023-05-24T00:31:19.629Z,66.41
2023-05-24T00:36:12.955Z,66.71
2023-05-24T00:41:05.835Z,67.09
2023-05-24T00:46:19.208Z,67.42
2023-05-24T00:51:12.925Z,67.86
2023-05-24T00:56:07.299Z,68.57
2023-05-24T01:01:04.070Z,69.27
2023-05-24T01:06:04.251Z,69.02
2023-05-24T01:11:19.317Z,69.51
2023-05-24T01:16:35.383Z,69.78
2023-05-24T01:21:43.712Z,71.05
2023-05-24T01:26:52.128Z,71.11
2023-05-24T01:31:46.973Z,71.67
2023-05-24T01:36:44.083Z,72.28
2023-05-24T01:42:18.837Z,73.28
2023-05-24T01:47:39.372Z,73.67
2023-05-24T01:52:34.987Z,74.77
2023-05-24T01:57:34.069Z,75.89
2023-05-24T02:02:28.675Z,75.03
2023-05-24T02:07:20.834Z,75.48
2023-05-24T02:12:12.874Z,74.81
2023-05-24T02:17:06.214Z,75.63
2023-05-24T02:21:58.869Z,76.17
2023-05-24T02:26:50.919Z,76.81
2023-05-24T02:31:43.159Z,77.20
2023-05-24T02:36:38.186Z,77.77
2023-05-24T02:41:30.339Z,77.83
2023-05-24T02:46:24.486Z,78.76
2023-05-24T02:51:17.768Z,79.50
2023-05-24T02:56:09.909Z,80.67
2023-05-24T03:01:02.792Z,81.91
2023-05-24T03:05:58.984Z,82.28
2023-05-24T03:10:56.089Z,84.63
2023-05-24T03:15:48.869Z,84.52
2023-05-24T03:20:44.856Z,85.69
2023-05-24T03:25:42.130Z,86.16
2023-05-24T03:30:34.677Z,86.51
2023-05-24T03:35:27.864Z,86.82
2023-05-24T03:40:21.346Z,86.35
2023-05-24T03:45:30.622Z,86.36
2023-05-24T03:50:30.713Z,85.62
2023-05-24T03:55:22.739Z,85.05
2023-05-24T04:00:17.146Z,84.05
2023-05-24T04:05:14.305Z,83.11
2023-05-24T04:10:08.042Z,81.39
2023-05-24T04:15:01.961Z,79.90
2023-05-24T04:19:55.379Z,79.19
2023-05-24T04:24:50.016Z,77.53
2023-05-24T04:29:45.132Z,76.68
2023-05-24T04:34:37.704Z,74.96
2023-05-24T04:39:33.126Z,73.33
2023-05-24T04:44:26.388Z,72.43
2023-05-24T04:49:20.002Z,70.98
2023-05-24T04:54:12.699Z,68.81
2023-05-24T04:59:06.134Z,65.76
2023-05-24T05:03:58.997Z,55.58
2023-05-24T05:08:54.003Z,47.90
2023-05-24T05:13:46.079Z,43.98
2023-05-24T05:18:39.128Z,40.09
2023-05-24T05:23:33.942Z,36.90
2023-05-24T05:28:26.275Z,35.12
2023-05-24T05:33:19.044Z,32.60
2023-05-24T05:38:11.249Z,31.35
2023-05-24T05:43:04.742Z,30.33
2023-05-24T05:48:01.091Z,29.91
2023-05-24T05:52:53.159Z,29.13
2023-05-24T05:57:45.123Z,28.06
2023-05-24T06:02:37.611Z,27.48
2023-05-24T06:07:31.065Z,27.69
2023-05-24T06:12:22.977Z,27.26
2023-05-24T06:17:15.196Z,26.16
2023-05-24T06:22:07.536Z,25.20
2023-05-24T06:27:04.696Z,27.27
2023-05-24T06:31:57.427Z,25.67
2023-05-24T06:36:52.104Z,24.40
2023-05-24T06:41:44.746Z,24.76
2023-05-24T06:46:38.175Z,23.04
2023-05-24T06:51:31.383Z,22.59
2023-05-24T06:56:24.181Z,24.84
2023-05-24T07:01:16.815Z,26.63
2023-05-24T07:06:10.249Z,29.07
2023-05-24T07:11:03.904Z,28.69
2023-05-24T07:15:57.079Z,31.63
2023-05-24T07:20:49.397Z,32.34
2023-05-24T07:25:43.164Z,31.62
2023-05-24T07:30:35.850Z,28.42
2023-05-24T07:35:30.302Z,30.11
2023-05-24T07:40:23.537Z,28.99
2023-05-24T07:45:15.925Z,25.97
2023-05-24T07:50:09.028Z,24.24
2023-05-24T07:55:01.239Z,22.77
2023-05-24T07:59:54.119Z,25.72
2023-05-24T08:04:46.967Z,26.60
2023-05-24T08:09:38.909Z,26.59
2023-05-24T08:14:32.439Z,30.65
2023-05-24T08:19:24.463Z,31.11
2023-05-24T08:24:16.559Z,32.81
2023-05-24T08:29:09.398Z,35.50
2023-05-24T08:34:04.101Z,37.27
2023-05-24T08:38:56.487Z,37.09
2023-05-24T08:43:49.352Z,37.34
2023-05-24T08:48:48.807Z,39.05
2023-05-24T08:53:42.435Z,39.57
2023-05-24T08:58:35.069Z,39.59
2023-05-24T09:03:34.509Z,38.97
2023-05-24T09:08:27.831Z,38.83
2023-05-24T09:13:21.843Z,38.32
2023-05-24T09:18:13.869Z,37.13
2023-05-24T09:23:08.292Z,36.47
2023-05-24T09:28:06.587Z,36.80
2023-05-24T09:33:00.910Z,37.97
2023-05-24T09:38:00.593Z,37.17
2023-05-24T09:43:10.378Z,31.72
2023-05-24T09:48:04.412Z,31.24
2023-05-24T09:52:59.374Z,33.65
2023-05-24T09:58:04.482Z,33.81
2023-05-24T10:03:05.169Z,35.57
2023-05-24T10:08:01.301Z,37.46
2023-05-24T10:12:57.804Z,36.24
2023-05-24T10:17:50.240Z,35.02
2023-05-24T10:22:48.698Z,35.53
2023-05-24T10:27:42.100Z,35.37
2023-05-24T10:32:38.807Z,34.85
2023-05-24T10:37:31.801Z,35.05
2023-05-24T10:42:23.995Z,34.51
2023-05-24T10:47:20.264Z,35.73
2023-05-24T10:57:33.115Z,35.29
2023-05-24T11:02:36.082Z,34.60
2023-05-24T11:07:29.032Z,34.42
2023-05-24T11:12:24.162Z,32.85
2023-05-24T11:17:19.987Z,32.34
2023-05-24T11:22:15.315Z,31.89
2023-05-24T11:27:07.968Z,32.02
2023-05-24T11:32:08.578Z,31.87
2023-05-24T11:37:07.167Z,32.36
2023-05-24T11:42:00.652Z,33.25
2023-05-24T11:47:03.406Z,35.03
2023-05-24T11:51:57.617Z,36.49
2023-05-24T11:56:51.833Z,36.95
2023-05-24T12:01:45.179Z,38.60
2023-05-24T12:06:47.356Z,39.09
2023-05-24T12:11:42.316Z,38.81
2023-05-24T12:16:37.546Z,39.47
2023-05-24T12:21:33.671Z,39.43
2023-05-24T12:26:27.366Z,39.65
2023-05-24T12:31:20.386Z,38.88
2023-05-24T12:36:13.661Z,37.65
2023-05-24T12:46:01.894Z,35.70
2023-05-24T12:50:54.439Z,34.28
2023-05-24T12:55:48.620Z,32.77
2023-05-24T13:00:41.925Z,33.15
2023-05-24T13:05:36.018Z,33.37
2023-05-24T13:10:28.481Z,32.09
2023-05-24T13:15:25.337Z,30.70
2023-05-24T13:20:22.215Z,31.05
2023-05-24T13:25:15.241Z,31.59
2023-05-24T13:30:10.294Z,31.67
2023-05-24T13:35:08.150Z,32.20
2023-05-24T13:40:00.593Z,32.54
2023-05-24T13:44:52.940Z,34.33
2023-05-24T13:49:45.181Z,34.05
2023-05-24T13:54:39.333Z,34.80
2023-05-24T13:59:32.958Z,35.78
2023-05-24T14:04:25.208Z,37.47
2023-05-24T14:09:17.633Z,37.67
2023-05-24T14:19:05.268Z,36.92
2023-05-24T14:23:59.231Z,37.18
2023-05-24T14:28:54.436Z,37.37
2023-05-24T14:33:49.364Z,37.16
2023-05-24T14:38:43.369Z,37.37
2023-05-24T14:43:36.671Z,37.93
2023-05-24T14:48:29.056Z,38.60
2023-05-24T14:53:23.945Z,37.17
2023-05-24T14:58:15.953Z,37.12
2023-05-24T15:03:14.451Z,36.79
2023-05-24T15:08:08.614Z,35.45
2023-05-24T15:13:01.717Z,36.37
2023-05-24T15:17:53.999Z,37.00
2023-05-24T15:22:47.040Z,37.37
2023-05-24T15:27:39.361Z,37.96
2023-05-24T15:32:32.748Z,37.08
2023-05-24T15:37:24.873Z,38.36
2023-05-24T15:42:18.227Z,40.50
2023-05-24T15:47:10.714Z,40.89
2023-05-24T15:52:05.143Z,41.07
2023-05-24T15:56:57.893Z,41.57
2023-05-24T16:01:52.796Z,41.47
2023-05-24T16:06:46.513Z,41.27
2023-05-24T16:11:48.254Z,41.04
2023-05-24T16:33:15.906Z,41.68
2023-05-24T16:38:09.316Z,41.77
2023-05-24T16:43:02.039Z,41.97
2023-05-24T16:47:54.869Z,42.37
2023-05-24T16:53:19.763Z,42.88
2023-05-24T16:58:35.928Z,43.53
2023-05-24T17:16:10.169Z,44.19
2023-05-24T17:21:07.448Z,43.93
2023-05-24T17:26:10.744Z,43.97
2023-05-24T17:31:05.655Z,44.06
2023-05-24T17:36:13.549Z,44.66
2023-05-24T17:41:34.136Z,45.43
2023-05-24T17:58:16.688Z,46.01
2023-05-24T18:08:58.737Z,46.73
2023-05-24T18:37:21.735Z,48.49
2023-05-24T18:42:56.425Z,49.67
2023-05-24T18:48:13.907Z,49.75
2023-05-24T18:53:14.717Z,49.36
2023-05-24T18:58:33.040Z,49.76
2023-05-24T19:31:46.474Z,52.31
2023-05-24T19:37:10.952Z,52.91
2023-05-24T19:54:06.298Z,54.25
2023-05-24T20:06:35.112Z,54.99
2023-05-24T20:11:31.349Z,55.26
2023-05-24T20:16:25.862Z,56.06
2023-05-24T20:28:42.338Z,57.42
2023-05-24T20:39:09.764Z,58.34
2023-05-24T20:45:01.072Z,59.40
2023-05-24T20:56:06.788Z,60.76
2023-05-24T22:18:47.507Z,70.16
2023-05-24T22:23:39.700Z,70.24
2023-05-24T22:28:50.824Z,71.57
2023-05-24T22:33:44.878Z,71.47
2023-05-24T22:38:38.721Z,71.55
2023-05-24T22:43:30.883Z,72.20
2023-05-24T22:48:29.225Z,72.81
2023-05-24T22:53:21.557Z,73.97
2023-05-24T22:58:17.590Z,74.65
2023-05-24T23:03:10.626Z,74.64
2023-05-24T23:08:11.631Z,76.86
2023-05-24T23:23:47.601Z,75.85
2023-05-24T23:40:17.751Z,77.68
2023-05-24T23:45:14.824Z,78.98
2023-05-24T23:50:20.372Z,79.16
2023-05-24T23:55:18.751Z,80.45
